sensor_id;sensor_type;location;lat;lon;timestamp;P1;durP1;ratioP1;P2;durP2;ratioP2
53646;SDS011;39550;52.230;5.194;2023-01-13T00:01:49;18.33;;;6.13;;
53646;SDS011;39550;52.230;5.194;2023-01-13T00:04:14;19.85;;;5.90;;
53646;SDS011;39550;52.230;5.194;2023-01-13T00:06:40;15.07;;;5.85;;
53646;SDS011;39550;52.230;5.194;2023-01-13T00:09:05;21.05;;;5.88;;
53646;SDS011;39550;52.230;5.194;2023-01-13T00:11:30;18.83;;;6.13;;
53646;SDS011;39550;52.230;5.194;2023-01-13T00:13:56;19.33;;;6.05;;
53646;SDS011;39550;52.230;5.194;2023-01-13T00:16:21;19.33;;;5.97;;
53646;SDS011;39550;52.230;5.194;2023-01-13T00:18:47;20.27;;;6.47;;
53646;SDS011;39550;52.230;5.194;2023-01-13T00:21:16;19.55;;;6.45;;
53646;SDS011;39550;52.230;5.194;2023-01-13T00:23:46;17.95;;;5.60;;
53646;SDS011;39550;52.230;5.194;2023-01-13T00:26:15;17.95;;;6.22;;
53646;SDS011;39550;52.230;5.194;2023-01-13T00:28:42;16.42;;;5.90;;
53646;SDS011;39550;52.230;5.194;2023-01-13T00:31:08;18.45;;;6.15;;
53646;SDS011;39550;52.230;5.194;2023-01-13T00:33:36;19.35;;;6.22;;
53646;SDS011;39550;52.230;5.194;2023-01-13T00:36:02;20.88;;;6.93;;
53646;SDS011;39550;52.230;5.194;2023-01-13T00:38:29;18.95;;;6.78;;
53646;SDS011;39550;52.230;5.194;2023-01-13T00:45:52;13.73;;;4.82;;
53646;SDS011;39550;52.230;5.194;2023-01-13T00:48:18;19.42;;;6.00;;
53646;SDS011;39550;52.230;5.194;2023-01-13T00:50:44;23.20;;;6.32;;
53646;SDS011;39550;52.230;5.194;2023-01-13T00:53:10;20.15;;;6.35;;
53646;SDS011;39550;52.230;5.194;2023-01-13T00:55:36;24.55;;;6.22;;
53646;SDS011;39550;52.230;5.194;2023-01-13T00:58:02;23.52;;;6.50;;
53646;SDS011;39550;52.230;5.194;2023-01-13T01:00:33;21.42;;;6.63;;
53646;SDS011;39550;52.230;5.194;2023-01-13T01:02:59;21.13;;;5.78;;
53646;SDS011;39550;52.230;5.194;2023-01-13T01:05:24;19.65;;;6.28;;
53646;SDS011;39550;52.230;5.194;2023-01-13T01:07:50;17.42;;;5.93;;
53646;SDS011;39550;52.230;5.194;2023-01-13T01:10:15;20.25;;;5.90;;
53646;SDS011;39550;52.230;5.194;2023-01-13T01:12:41;16.10;;;5.88;;
53646;SDS011;39550;52.230;5.194;2023-01-13T01:15:06;21.23;;;6.20;;
53646;SDS011;39550;52.230;5.194;2023-01-13T01:17:34;20.63;;;6.47;;
53646;SDS011;39550;52.230;5.194;2023-01-13T01:20:00;16.77;;;6.22;;
53646;SDS011;39550;52.230;5.194;2023-01-13T01:22:25;18.85;;;5.68;;
53646;SDS011;39550;52.230;5.194;2023-01-13T01:24:50;18.05;;;5.93;;
53646;SDS011;39550;52.230;5.194;2023-01-13T01:27:16;20.52;;;6.65;;
53646;SDS011;39550;52.230;5.194;2023-01-13T01:29:41;23.90;;;6.65;;
53646;SDS011;39550;52.230;5.194;2023-01-13T01:32:06;18.70;;;5.60;;
53646;SDS011;39550;52.230;5.194;2023-01-13T01:34:32;17.27;;;5.10;;
53646;SDS011;39550;52.230;5.194;2023-01-13T01:36:57;18.15;;;6.20;;
53646;SDS011;39550;52.230;5.194;2023-01-13T01:39:22;18.63;;;6.10;;
53646;SDS011;39550;52.230;5.194;2023-01-13T01:41:47;18.30;;;6.13;;
53646;SDS011;39550;52.230;5.194;2023-01-13T01:47:07;21.52;;;6.00;;
53646;SDS011;39550;52.230;5.194;2023-01-13T01:49:35;21.92;;;6.00;;
53646;SDS011;39550;52.230;5.194;2023-01-13T01:54:50;17.02;;;5.40;;
53646;SDS011;39550;52.230;5.194;2023-01-13T01:58:19;17.80;;;6.55;;
53646;SDS011;39550;52.230;5.194;2023-01-13T02:00:33;17.30;;;6.20;;
53646;SDS011;39550;52.230;5.194;2023-01-13T02:02:59;18.63;;;5.80;;
53646;SDS011;39550;52.230;5.194;2023-01-13T02:05:25;19.77;;;6.82;;
53646;SDS011;39550;52.230;5.194;2023-01-13T02:07:51;18.20;;;6.22;;
53646;SDS011;39550;52.230;5.194;2023-01-13T02:10:21;17.95;;;6.35;;
53646;SDS011;39550;52.230;5.194;2023-01-13T02:12:49;18.83;;;6.10;;
53646;SDS011;39550;52.230;5.194;2023-01-13T02:15:17;16.98;;;5.95;;
53646;SDS011;39550;52.230;5.194;2023-01-13T02:20:43;15.73;;;6.38;;
53646;SDS011;39550;52.230;5.194;2023-01-13T02:32:28;21.35;;;6.18;;
53646;SDS011;39550;52.230;5.194;2023-01-13T02:35:03;23.58;;;6.20;;
53646;SDS011;39550;52.230;5.194;2023-01-13T02:37:30;15.82;;;6.38;;
53646;SDS011;39550;52.230;5.194;2023-01-13T02:40:00;21.00;;;6.15;;
53646;SDS011;39550;52.230;5.194;2023-01-13T02:42:31;26.92;;;6.97;;
53646;SDS011;39550;52.230;5.194;2023-01-13T02:45:22;15.43;;;6.25;;
53646;SDS011;39550;52.230;5.194;2023-01-13T02:48:08;19.25;;;6.95;;
53646;SDS011;39550;52.230;5.194;2023-01-13T02:50:42;23.23;;;6.57;;
53646;SDS011;39550;52.230;5.194;2023-01-13T02:53:12;20.85;;;7.15;;
53646;SDS011;39550;52.230;5.194;2023-01-13T02:55:45;20.83;;;7.47;;
53646;SDS011;39550;52.230;5.194;2023-01-13T02:58:14;17.43;;;5.53;;
53646;SDS011;39550;52.230;5.194;2023-01-13T03:00:42;21.20;;;6.93;;
53646;SDS011;39550;52.230;5.194;2023-01-13T03:03:08;27.58;;;7.32;;
53646;SDS011;39550;52.230;5.194;2023-01-13T03:05:33;18.13;;;6.75;;
53646;SDS011;39550;52.230;5.194;2023-01-13T03:08:19;18.98;;;5.85;;
53646;SDS011;39550;52.230;5.194;2023-01-13T03:11:01;17.17;;;6.00;;
53646;SDS011;39550;52.230;5.194;2023-01-13T03:16:44;19.00;;;6.60;;
53646;SDS011;39550;52.230;5.194;2023-01-13T03:22:29;22.63;;;6.80;;
53646;SDS011;39550;52.230;5.194;2023-01-13T03:25:06;22.05;;;7.07;;
53646;SDS011;39550;52.230;5.194;2023-01-13T03:33:14;18.45;;;5.82;;
53646;SDS011;39550;52.230;5.194;2023-01-13T03:35:44;17.90;;;6.07;;
53646;SDS011;39550;52.230;5.194;2023-01-13T03:38:13;24.55;;;6.70;;
53646;SDS011;39550;52.230;5.194;2023-01-13T03:40:43;21.05;;;6.45;;
53646;SDS011;39550;52.230;5.194;2023-01-13T03:43:15;22.83;;;7.25;;
53646;SDS011;39550;52.230;5.194;2023-01-13T03:46:15;20.60;;;6.70;;
53646;SDS011;39550;52.230;5.194;2023-01-13T03:48:45;22.08;;;6.40;;
53646;SDS011;39550;52.230;5.194;2023-01-13T03:51:16;23.73;;;6.95;;
53646;SDS011;39550;52.230;5.194;2023-01-13T03:53:47;17.33;;;5.18;;
53646;SDS011;39550;52.230;5.194;2023-01-13T03:56:26;26.38;;;6.47;;
53646;SDS011;39550;52.230;5.194;2023-01-13T03:58:57;25.35;;;7.15;;
53646;SDS011;39550;52.230;5.194;2023-01-13T04:01:28;18.80;;;6.72;;
53646;SDS011;39550;52.230;5.194;2023-01-13T04:04:00;21.38;;;6.30;;
53646;SDS011;39550;52.230;5.194;2023-01-13T04:09:30;28.50;;;8.25;;
53646;SDS011;39550;52.230;5.194;2023-01-13T04:12:10;20.70;;;7.57;;
53646;SDS011;39550;52.230;5.194;2023-01-13T04:14:41;22.35;;;7.43;;
53646;SDS011;39550;52.230;5.194;2023-01-13T04:17:07;19.50;;;6.07;;
53646;SDS011;39550;52.230;5.194;2023-01-13T04:19:32;18.20;;;5.60;;
53646;SDS011;39550;52.230;5.194;2023-01-13T04:21:58;24.92;;;7.07;;
53646;SDS011;39550;52.230;5.194;2023-01-13T04:24:24;21.10;;;5.82;;
53646;SDS011;39550;52.230;5.194;2023-01-13T04:26:49;17.38;;;6.30;;
53646;SDS011;39550;52.230;5.194;2023-01-13T04:29:15;15.98;;;5.85;;
53646;SDS011;39550;52.230;5.194;2023-01-13T04:31:40;16.17;;;6.15;;
53646;SDS011;39550;52.230;5.194;2023-01-13T04:34:06;24.35;;;6.63;;
53646;SDS011;39550;52.230;5.194;2023-01-13T04:36:32;16.35;;;6.07;;
53646;SDS011;39550;52.230;5.194;2023-01-13T04:38:57;15.43;;;5.15;;
53646;SDS011;39550;52.230;5.194;2023-01-13T04:41:23;21.08;;;6.07;;
53646;SDS011;39550;52.230;5.194;2023-01-13T04:43:48;19.45;;;6.10;;
53646;SDS011;39550;52.230;5.194;2023-01-13T04:46:14;18.58;;;6.13;;
53646;SDS011;39550;52.230;5.194;2023-01-13T04:48:39;15.25;;;5.07;;
53646;SDS011;39550;52.230;5.194;2023-01-13T04:51:04;15.90;;;5.05;;
53646;SDS011;39550;52.230;5.194;2023-01-13T04:53:30;16.73;;;5.22;;
53646;SDS011;39550;52.230;5.194;2023-01-13T04:55:55;17.02;;;5.60;;
53646;SDS011;39550;52.230;5.194;2023-01-13T04:58:20;17.45;;;5.20;;
53646;SDS011;39550;52.230;5.194;2023-01-13T05:00:46;14.05;;;5.00;;
53646;SDS011;39550;52.230;5.194;2023-01-13T05:03:11;17.80;;;5.28;;
53646;SDS011;39550;52.230;5.194;2023-01-13T05:05:36;17.27;;;5.03;;
53646;SDS011;39550;52.230;5.194;2023-01-13T05:08:02;15.45;;;5.53;;
53646;SDS011;39550;52.230;5.194;2023-01-13T05:10:28;14.20;;;4.68;;
53646;SDS011;39550;52.230;5.194;2023-01-13T05:12:54;18.35;;;5.13;;
53646;SDS011;39550;52.230;5.194;2023-01-13T05:15:38;16.25;;;5.25;;
53646;SDS011;39550;52.230;5.194;2023-01-13T05:18:23;18.30;;;5.72;;
53646;SDS011;39550;52.230;5.194;2023-01-13T05:20:49;13.60;;;4.97;;
53646;SDS011;39550;52.230;5.194;2023-01-13T05:23:15;13.45;;;4.63;;
53646;SDS011;39550;52.230;5.194;2023-01-13T05:25:59;16.65;;;4.95;;
53646;SDS011;39550;52.230;5.194;2023-01-13T05:28:24;13.10;;;4.45;;
53646;SDS011;39550;52.230;5.194;2023-01-13T05:30:50;13.38;;;4.10;;
53646;SDS011;39550;52.230;5.194;2023-01-13T05:33:17;13.00;;;4.20;;
53646;SDS011;39550;52.230;5.194;2023-01-13T05:35:46;11.18;;;4.10;;
53646;SDS011;39550;52.230;5.194;2023-01-13T05:38:14;13.23;;;4.45;;
53646;SDS011;39550;52.230;5.194;2023-01-13T05:40:39;12.63;;;4.13;;
53646;SDS011;39550;52.230;5.194;2023-01-13T05:43:24;12.73;;;4.43;;
53646;SDS011;39550;52.230;5.194;2023-01-13T05:46:01;14.43;;;5.22;;
53646;SDS011;39550;52.230;5.194;2023-01-13T05:48:27;14.25;;;4.80;;
53646;SDS011;39550;52.230;5.194;2023-01-13T05:50:57;11.25;;;4.03;;
53646;SDS011;39550;52.230;5.194;2023-01-13T05:53:22;11.77;;;4.13;;
53646;SDS011;39550;52.230;5.194;2023-01-13T05:55:48;13.65;;;4.65;;
53646;SDS011;39550;52.230;5.194;2023-01-13T05:58:16;12.07;;;4.15;;
53646;SDS011;39550;52.230;5.194;2023-01-13T06:00:42;12.52;;;4.57;;
53646;SDS011;39550;52.230;5.194;2023-01-13T06:03:08;12.32;;;5.15;;
53646;SDS011;39550;52.230;5.194;2023-01-13T06:05:34;15.50;;;4.10;;
53646;SDS011;39550;52.230;5.194;2023-01-13T06:08:00;11.73;;;3.90;;
53646;SDS011;39550;52.230;5.194;2023-01-13T06:10:27;10.73;;;3.65;;
53646;SDS011;39550;52.230;5.194;2023-01-13T06:12:53;13.63;;;4.00;;
53646;SDS011;39550;52.230;5.194;2023-01-13T06:15:19;14.75;;;4.50;;
53646;SDS011;39550;52.230;5.194;2023-01-13T06:17:45;12.30;;;4.32;;
53646;SDS011;39550;52.230;5.194;2023-01-13T06:20:11;12.48;;;4.25;;
53646;SDS011;39550;52.230;5.194;2023-01-13T06:22:38;9.23;;;4.20;;
53646;SDS011;39550;52.230;5.194;2023-01-13T06:25:16;9.63;;;3.90;;
53646;SDS011;39550;52.230;5.194;2023-01-13T06:27:45;11.33;;;3.60;;
53646;SDS011;39550;52.230;5.194;2023-01-13T06:30:11;12.45;;;3.75;;
53646;SDS011;39550;52.230;5.194;2023-01-13T06:32:39;12.13;;;4.40;;
53646;SDS011;39550;52.230;5.194;2023-01-13T06:35:09;12.85;;;3.83;;
53646;SDS011;39550;52.230;5.194;2023-01-13T06:37:39;10.05;;;3.75;;
53646;SDS011;39550;52.230;5.194;2023-01-13T06:40:08;12.80;;;4.75;;
53646;SDS011;39550;52.230;5.194;2023-01-13T06:42:36;12.93;;;4.40;;
53646;SDS011;39550;52.230;5.194;2023-01-13T06:45:21;14.82;;;4.07;;
53646;SDS011;39550;52.230;5.194;2023-01-13T06:47:49;10.95;;;4.10;;
53646;SDS011;39550;52.230;5.194;2023-01-13T06:50:18;12.65;;;4.15;;
53646;SDS011;39550;52.230;5.194;2023-01-13T06:52:44;9.95;;;3.92;;
53646;SDS011;39550;52.230;5.194;2023-01-13T06:55:09;14.40;;;4.22;;
53646;SDS011;39550;52.230;5.194;2023-01-13T06:57:39;10.77;;;4.45;;
53646;SDS011;39550;52.230;5.194;2023-01-13T07:00:26;12.63;;;4.78;;
53646;SDS011;39550;52.230;5.194;2023-01-13T07:03:10;13.75;;;4.45;;
53646;SDS011;39550;52.230;5.194;2023-01-13T07:06:05;13.55;;;4.50;;
53646;SDS011;39550;52.230;5.194;2023-01-13T07:08:34;19.55;;;4.43;;
53646;SDS011;39550;52.230;5.194;2023-01-13T07:11:10;14.27;;;4.15;;
53646;SDS011;39550;52.230;5.194;2023-01-13T07:13:39;15.57;;;4.22;;
53646;SDS011;39550;52.230;5.194;2023-01-13T07:16:23;11.90;;;4.47;;
53646;SDS011;39550;52.230;5.194;2023-01-13T07:18:48;13.05;;;4.20;;
53646;SDS011;39550;52.230;5.194;2023-01-13T07:21:16;17.63;;;5.15;;
53646;SDS011;39550;52.230;5.194;2023-01-13T07:23:48;15.13;;;5.05;;
53646;SDS011;39550;52.230;5.194;2023-01-13T07:28:56;15.50;;;4.30;;
53646;SDS011;39550;52.230;5.194;2023-01-13T07:41:38;20.33;;;5.28;;
53646;SDS011;39550;52.230;5.194;2023-01-13T07:44:42;18.95;;;4.65;;
53646;SDS011;39550;52.230;5.194;2023-01-13T07:47:07;15.13;;;4.45;;
53646;SDS011;39550;52.230;5.194;2023-01-13T07:49:35;20.05;;;4.97;;
53646;SDS011;39550;52.230;5.194;2023-01-13T07:52:01;15.07;;;5.15;;
53646;SDS011;39550;52.230;5.194;2023-01-13T07:54:26;15.23;;;4.75;;
53646;SDS011;39550;52.230;5.194;2023-01-13T07:56:54;14.02;;;4.90;;
53646;SDS011;39550;52.230;5.194;2023-01-13T07:59:20;17.23;;;4.50;;
53646;SDS011;39550;52.230;5.194;2023-01-13T08:01:46;12.50;;;4.75;;
53646;SDS011;39550;52.230;5.194;2023-01-13T08:04:11;12.73;;;5.00;;
53646;SDS011;39550;52.230;5.194;2023-01-13T08:06:38;20.25;;;4.93;;
53646;SDS011;39550;52.230;5.194;2023-01-13T08:09:05;14.45;;;4.90;;
53646;SDS011;39550;52.230;5.194;2023-01-13T08:11:30;14.95;;;5.10;;
53646;SDS011;39550;52.230;5.194;2023-01-13T08:13:55;15.50;;;4.57;;
53646;SDS011;39550;52.230;5.194;2023-01-13T08:16:22;14.43;;;5.03;;
53646;SDS011;39550;52.230;5.194;2023-01-13T08:18:48;13.73;;;5.35;;
53646;SDS011;39550;52.230;5.194;2023-01-13T08:21:14;22.08;;;5.45;;
53646;SDS011;39550;52.230;5.194;2023-01-13T08:23:40;15.55;;;4.68;;
53646;SDS011;39550;52.230;5.194;2023-01-13T08:26:08;14.02;;;4.43;;
53646;SDS011;39550;52.230;5.194;2023-01-13T08:28:37;17.60;;;4.68;;
53646;SDS011;39550;52.230;5.194;2023-01-13T08:31:05;18.70;;;5.18;;
53646;SDS011;39550;52.230;5.194;2023-01-13T08:33:31;15.25;;;5.10;;
53646;SDS011;39550;52.230;5.194;2023-01-13T08:35:57;12.82;;;4.30;;
53646;SDS011;39550;52.230;5.194;2023-01-13T08:38:26;13.98;;;5.65;;
53646;SDS011;39550;52.230;5.194;2023-01-13T08:40:51;21.05;;;5.32;;
53646;SDS011;39550;52.230;5.194;2023-01-13T08:43:16;17.75;;;5.78;;
53646;SDS011;39550;52.230;5.194;2023-01-13T08:45:42;17.25;;;5.68;;
53646;SDS011;39550;52.230;5.194;2023-01-13T08:48:07;17.65;;;5.28;;
53646;SDS011;39550;52.230;5.194;2023-01-13T08:50:33;21.58;;;6.50;;
53646;SDS011;39550;52.230;5.194;2023-01-13T08:52:58;14.65;;;4.80;;
53646;SDS011;39550;52.230;5.194;2023-01-13T08:55:24;17.05;;;5.65;;
53646;SDS011;39550;52.230;5.194;2023-01-13T08:57:49;20.50;;;5.70;;
53646;SDS011;39550;52.230;5.194;2023-01-13T09:00:15;14.88;;;4.60;;
53646;SDS011;39550;52.230;5.194;2023-01-13T09:02:43;17.80;;;4.65;;
53646;SDS011;39550;52.230;5.194;2023-01-13T09:05:09;13.93;;;5.15;;
53646;SDS011;39550;52.230;5.194;2023-01-13T09:07:35;18.17;;;5.30;;
53646;SDS011;39550;52.230;5.194;2023-01-13T09:10:02;21.77;;;5.28;;
53646;SDS011;39550;52.230;5.194;2023-01-13T09:12:29;14.60;;;4.78;;
53646;SDS011;39550;52.230;5.194;2023-01-13T09:15:13;15.52;;;4.68;;
53646;SDS011;39550;52.230;5.194;2023-01-13T09:17:42;15.43;;;5.32;;
53646;SDS011;39550;52.230;5.194;2023-01-13T09:20:10;16.45;;;5.07;;
53646;SDS011;39550;52.230;5.194;2023-01-13T09:22:37;17.70;;;4.97;;
53646;SDS011;39550;52.230;5.194;2023-01-13T09:25:04;17.98;;;5.82;;
53646;SDS011;39550;52.230;5.194;2023-01-13T09:27:30;20.02;;;5.28;;
53646;SDS011;39550;52.230;5.194;2023-01-13T09:29:55;13.50;;;4.57;;
53646;SDS011;39550;52.230;5.194;2023-01-13T09:32:21;13.57;;;5.30;;
53646;SDS011;39550;52.230;5.194;2023-01-13T09:34:46;14.23;;;4.25;;
53646;SDS011;39550;52.230;5.194;2023-01-13T09:37:35;14.05;;;5.03;;
53646;SDS011;39550;52.230;5.194;2023-01-13T09:40:03;15.38;;;4.88;;
53646;SDS011;39550;52.230;5.194;2023-01-13T09:45:45;16.77;;;4.88;;
53646;SDS011;39550;52.230;5.194;2023-01-13T09:48:34;18.58;;;4.82;;
53646;SDS011;39550;52.230;5.194;2023-01-13T09:51:41;15.98;;;5.93;;
53646;SDS011;39550;52.230;5.194;2023-01-13T09:54:16;20.13;;;6.05;;
53646;SDS011;39550;52.230;5.194;2023-01-13T09:56:50;15.00;;;5.15;;
53646;SDS011;39550;52.230;5.194;2023-01-13T09:59:15;17.77;;;4.93;;
53646;SDS011;39550;52.230;5.194;2023-01-13T10:01:45;13.75;;;4.82;;
53646;SDS011;39550;52.230;5.194;2023-01-13T10:04:15;16.10;;;5.15;;
53646;SDS011;39550;52.230;5.194;2023-01-13T10:06:50;15.15;;;5.22;;
53646;SDS011;39550;52.230;5.194;2023-01-13T10:09:51;21.00;;;6.38;;
53646;SDS011;39550;52.230;5.194;2023-01-13T10:12:22;16.52;;;4.78;;
53646;SDS011;39550;52.230;5.194;2023-01-13T10:15:12;15.68;;;4.90;;
53646;SDS011;39550;52.230;5.194;2023-01-13T10:17:54;15.43;;;5.60;;
53646;SDS011;39550;52.230;5.194;2023-01-13T10:20:58;19.23;;;4.80;;
53646;SDS011;39550;52.230;5.194;2023-01-13T10:28:55;14.57;;;5.03;;
53646;SDS011;39550;52.230;5.194;2023-01-13T10:31:23;24.23;;;5.85;;
53646;SDS011;39550;52.230;5.194;2023-01-13T10:34:00;12.82;;;4.55;;
53646;SDS011;39550;52.230;5.194;2023-01-13T10:36:32;15.02;;;5.13;;
53646;SDS011;39550;52.230;5.194;2023-01-13T10:39:08;12.70;;;5.20;;
53646;SDS011;39550;52.230;5.194;2023-01-13T10:41:47;17.02;;;5.13;;
53646;SDS011;39550;52.230;5.194;2023-01-13T10:44:19;18.15;;;5.43;;
53646;SDS011;39550;52.230;5.194;2023-01-13T10:46:53;12.82;;;4.88;;
53646;SDS011;39550;52.230;5.194;2023-01-13T10:52:00;13.93;;;5.05;;
53646;SDS011;39550;52.230;5.194;2023-01-13T10:54:27;22.45;;;6.30;;
53646;SDS011;39550;52.230;5.194;2023-01-13T10:57:12;13.10;;;5.30;;
53646;SDS011;39550;52.230;5.194;2023-01-13T10:59:43;16.02;;;5.22;;
53646;SDS011;39550;52.230;5.194;2023-01-13T11:10:56;14.70;;;4.93;;
53646;SDS011;39550;52.230;5.194;2023-01-13T11:13:29;16.65;;;4.80;;
53646;SDS011;39550;52.230;5.194;2023-01-13T11:16:00;14.43;;;4.30;;
53646;SDS011;39550;52.230;5.194;2023-01-13T11:19:14;17.35;;;6.13;;
53646;SDS011;39550;52.230;5.194;2023-01-13T11:24:14;16.48;;;5.20;;
53646;SDS011;39550;52.230;5.194;2023-01-13T11:26:46;16.98;;;5.13;;
53646;SDS011;39550;52.230;5.194;2023-01-13T11:29:22;15.68;;;4.90;;
53646;SDS011;39550;52.230;5.194;2023-01-13T11:31:57;16.13;;;4.18;;
53646;SDS011;39550;52.230;5.194;2023-01-13T11:34:35;14.60;;;5.20;;
53646;SDS011;39550;52.230;5.194;2023-01-13T11:37:08;18.40;;;4.90;;
53646;SDS011;39550;52.230;5.194;2023-01-13T11:39:44;14.50;;;4.78;;
53646;SDS011;39550;52.230;5.194;2023-01-13T11:42:20;15.55;;;4.85;;
53646;SDS011;39550;52.230;5.194;2023-01-13T11:47:50;13.00;;;4.68;;
53646;SDS011;39550;52.230;5.194;2023-01-13T11:50:20;18.55;;;5.70;;
53646;SDS011;39550;52.230;5.194;2023-01-13T11:53:17;15.10;;;4.78;;
53646;SDS011;39550;52.230;5.194;2023-01-13T12:07:20;13.68;;;4.63;;
53646;SDS011;39550;52.230;5.194;2023-01-13T12:26:18;15.57;;;4.30;;
53646;SDS011;39550;52.230;5.194;2023-01-13T12:28:52;11.85;;;4.03;;
53646;SDS011;39550;52.230;5.194;2023-01-13T12:31:21;16.52;;;4.35;;
53646;SDS011;39550;52.230;5.194;2023-01-13T12:36:28;14.18;;;4.53;;
53646;SDS011;39550;52.230;5.194;2023-01-13T12:41:59;11.20;;;4.20;;
53646;SDS011;39550;52.230;5.194;2023-01-13T12:52:52;12.02;;;4.63;;
53646;SDS011;39550;52.230;5.194;2023-01-13T12:55:23;16.83;;;4.63;;
53646;SDS011;39550;52.230;5.194;2023-01-13T13:08:41;11.45;;;3.88;;
53646;SDS011;39550;52.230;5.194;2023-01-13T13:14:05;9.95;;;3.30;;
53646;SDS011;39550;52.230;5.194;2023-01-13T13:16:35;8.93;;;3.80;;
53646;SDS011;39550;52.230;5.194;2023-01-13T13:25:13;13.75;;;4.43;;
53646;SDS011;39550;52.230;5.194;2023-01-13T13:42:46;13.48;;;4.22;;
53646;SDS011;39550;52.230;5.194;2023-01-13T13:45:15;14.70;;;4.15;;
53646;SDS011;39550;52.230;5.194;2023-01-13T13:50:50;15.23;;;4.60;;
53646;SDS011;39550;52.230;5.194;2023-01-13T13:53:24;10.30;;;4.35;;
53646;SDS011;39550;52.230;5.194;2023-01-13T13:55:59;15.60;;;4.70;;
53646;SDS011;39550;52.230;5.194;2023-01-13T13:58:28;14.05;;;3.95;;
53646;SDS011;39550;52.230;5.194;2023-01-13T14:00:59;12.85;;;4.05;;
53646;SDS011;39550;52.230;5.194;2023-01-13T14:03:31;12.35;;;3.80;;
53646;SDS011;39550;52.230;5.194;2023-01-13T14:06:00;10.18;;;3.97;;
53646;SDS011;39550;52.230;5.194;2023-01-13T14:08:34;9.98;;;4.25;;
53646;SDS011;39550;52.230;5.194;2023-01-13T14:14:27;14.45;;;4.15;;
53646;SDS011;39550;52.230;5.194;2023-01-13T14:16:45;10.93;;;4.18;;
53646;SDS011;39550;52.230;5.194;2023-01-13T14:19:21;16.58;;;4.15;;
53646;SDS011;39550;52.230;5.194;2023-01-13T14:21:52;14.07;;;4.53;;
53646;SDS011;39550;52.230;5.194;2023-01-13T14:24:17;13.75;;;4.82;;
53646;SDS011;39550;52.230;5.194;2023-01-13T14:26:45;15.63;;;4.95;;
53646;SDS011;39550;52.230;5.194;2023-01-13T14:29:16;13.95;;;4.65;;
53646;SDS011;39550;52.230;5.194;2023-01-13T14:31:46;14.82;;;4.28;;
53646;SDS011;39550;52.230;5.194;2023-01-13T14:34:13;17.35;;;4.60;;
53646;SDS011;39550;52.230;5.194;2023-01-13T14:36:40;12.05;;;4.07;;
53646;SDS011;39550;52.230;5.194;2023-01-13T14:44:24;12.32;;;3.75;;
53646;SDS011;39550;52.230;5.194;2023-01-13T14:49:59;10.00;;;3.63;;
53646;SDS011;39550;52.230;5.194;2023-01-13T14:52:27;11.65;;;4.25;;
53646;SDS011;39550;52.230;5.194;2023-01-13T14:57:30;11.48;;;4.15;;
53646;SDS011;39550;52.230;5.194;2023-01-13T15:07:41;10.80;;;4.65;;
53646;SDS011;39550;52.230;5.194;2023-01-13T15:10:16;14.48;;;3.97;;
53646;SDS011;39550;52.230;5.194;2023-01-13T15:12:42;16.35;;;5.10;;
53646;SDS011;39550;52.230;5.194;2023-01-13T15:18:14;13.35;;;4.53;;
53646;SDS011;39550;52.230;5.194;2023-01-13T15:20:41;13.88;;;4.20;;
53646;SDS011;39550;52.230;5.194;2023-01-13T15:23:07;11.88;;;4.10;;
53646;SDS011;39550;52.230;5.194;2023-01-13T15:25:33;10.20;;;3.88;;
53646;SDS011;39550;52.230;5.194;2023-01-13T15:28:01;11.10;;;3.85;;
53646;SDS011;39550;52.230;5.194;2023-01-13T15:30:27;16.15;;;4.32;;
53646;SDS011;39550;52.230;5.194;2023-01-13T15:32:53;9.55;;;3.50;;
53646;SDS011;39550;52.230;5.194;2023-01-13T15:35:21;16.10;;;4.15;;
53646;SDS011;39550;52.230;5.194;2023-01-13T15:37:48;13.65;;;3.90;;
53646;SDS011;39550;52.230;5.194;2023-01-13T15:40:18;14.38;;;4.70;;
53646;SDS011;39550;52.230;5.194;2023-01-13T15:42:45;13.82;;;3.70;;
53646;SDS011;39550;52.230;5.194;2023-01-13T15:45:30;12.27;;;4.38;;
53646;SDS011;39550;52.230;5.194;2023-01-13T15:48:16;14.50;;;4.47;;
53646;SDS011;39550;52.230;5.194;2023-01-13T15:50:44;14.35;;;4.68;;
53646;SDS011;39550;52.230;5.194;2023-01-13T15:53:10;13.20;;;3.97;;
53646;SDS011;39550;52.230;5.194;2023-01-13T15:55:37;15.48;;;3.88;;
53646;SDS011;39550;52.230;5.194;2023-01-13T15:58:03;13.63;;;4.03;;
53646;SDS011;39550;52.230;5.194;2023-01-13T16:00:29;12.60;;;3.85;;
53646;SDS011;39550;52.230;5.194;2023-01-13T16:02:54;9.95;;;4.28;;
53646;SDS011;39550;52.230;5.194;2023-01-13T16:05:20;13.27;;;3.78;;
53646;SDS011;39550;52.230;5.194;2023-01-13T16:07:45;14.52;;;4.50;;
53646;SDS011;39550;52.230;5.194;2023-01-13T16:10:18;12.60;;;4.20;;
53646;SDS011;39550;52.230;5.194;2023-01-13T16:12:45;11.52;;;3.92;;
53646;SDS011;39550;52.230;5.194;2023-01-13T16:15:11;12.10;;;4.07;;
53646;SDS011;39550;52.230;5.194;2023-01-13T16:17:38;12.65;;;4.22;;
53646;SDS011;39550;52.230;5.194;2023-01-13T16:20:04;12.38;;;4.03;;
53646;SDS011;39550;52.230;5.194;2023-01-13T16:22:30;15.20;;;4.25;;
53646;SDS011;39550;52.230;5.194;2023-01-13T16:24:55;14.48;;;4.53;;
53646;SDS011;39550;52.230;5.194;2023-01-13T16:27:22;13.32;;;4.30;;
53646;SDS011;39550;52.230;5.194;2023-01-13T16:29:48;12.98;;;5.00;;
53646;SDS011;39550;52.230;5.194;2023-01-13T16:32:15;10.20;;;3.75;;
53646;SDS011;39550;52.230;5.194;2023-01-13T16:34:40;10.10;;;4.10;;
53646;SDS011;39550;52.230;5.194;2023-01-13T16:37:23;12.35;;;4.05;;
53646;SDS011;39550;52.230;5.194;2023-01-13T16:39:50;13.10;;;4.88;;
53646;SDS011;39550;52.230;5.194;2023-01-13T16:42:16;14.77;;;4.05;;
53646;SDS011;39550;52.230;5.194;2023-01-13T16:44:42;14.80;;;4.60;;
53646;SDS011;39550;52.230;5.194;2023-01-13T16:47:11;10.18;;;4.43;;
53646;SDS011;39550;52.230;5.194;2023-01-13T16:49:38;13.57;;;4.15;;
53646;SDS011;39550;52.230;5.194;2023-01-13T16:52:04;12.68;;;4.93;;
53646;SDS011;39550;52.230;5.194;2023-01-13T16:54:29;15.90;;;3.97;;
53646;SDS011;39550;52.230;5.194;2023-01-13T16:56:54;11.85;;;4.75;;
53646;SDS011;39550;52.230;5.194;2023-01-13T16:59:20;13.68;;;4.57;;
53646;SDS011;39550;52.230;5.194;2023-01-13T17:01:45;12.02;;;3.92;;
53646;SDS011;39550;52.230;5.194;2023-01-13T17:04:14;13.68;;;4.38;;
53646;SDS011;39550;52.230;5.194;2023-01-13T17:09:20;12.50;;;4.15;;
53646;SDS011;39550;52.230;5.194;2023-01-13T17:11:47;13.85;;;4.65;;
53646;SDS011;39550;52.230;5.194;2023-01-13T17:14:13;11.68;;;4.20;;
53646;SDS011;39550;52.230;5.194;2023-01-13T17:16:38;11.82;;;4.32;;
53646;SDS011;39550;52.230;5.194;2023-01-13T17:19:04;11.10;;;4.32;;
53646;SDS011;39550;52.230;5.194;2023-01-13T17:21:30;12.90;;;5.03;;
53646;SDS011;39550;52.230;5.194;2023-01-13T17:23:55;12.70;;;4.72;;
53646;SDS011;39550;52.230;5.194;2023-01-13T17:28:56;13.13;;;4.00;;
53646;SDS011;39550;52.230;5.194;2023-01-13T17:31:23;16.80;;;5.15;;
53646;SDS011;39550;52.230;5.194;2023-01-13T17:33:48;11.07;;;4.03;;
53646;SDS011;39550;52.230;5.194;2023-01-13T17:36:13;9.25;;;4.25;;
53646;SDS011;39550;52.230;5.194;2023-01-13T17:38:38;10.95;;;4.50;;
53646;SDS011;39550;52.230;5.194;2023-01-13T17:41:04;10.90;;;4.82;;
53646;SDS011;39550;52.230;5.194;2023-01-13T17:43:30;9.15;;;3.90;;
53646;SDS011;39550;52.230;5.194;2023-01-13T17:45:56;9.85;;;3.97;;
53646;SDS011;39550;52.230;5.194;2023-01-13T17:48:22;9.98;;;3.63;;
53646;SDS011;39550;52.230;5.194;2023-01-13T17:50:47;9.48;;;3.30;;
53646;SDS011;39550;52.230;5.194;2023-01-13T17:53:14;10.73;;;3.92;;
53646;SDS011;39550;52.230;5.194;2023-01-13T17:55:39;13.40;;;4.00;;
53646;SDS011;39550;52.230;5.194;2023-01-13T17:58:04;12.02;;;4.13;;